UAL2117 KSAN-KSFO
Flight info
| Callsign | UAL2117 |
|---|---|
| Flight time | 1h 8m |
| Altitude | 32000 |
| Route | PADRZ2 IKAYE RIZIN SPLNT STOKD SERFR SERFR4 |
| Aircraft | B738/M-SDE2E3FGHIRWXY/LB1 |
Departure
| Time | 2026-04-24 01:35 |
|---|---|
| Airport | San Diego International Airport (KSAN) |
Arrival
| Time | 2026-04-24 02:43 |
|---|---|
| Airport | San Francisco International Airport (KSFO) |
| Time | Latitude | Longitude | Altitude | Speed | Heading |
|---|---|---|---|---|---|
| 2026-04-24 01:07 | 32.73452 | -117.20349 | 22 ft | 0 kts | 230° |
| 2026-04-24 01:22 | 32.73454 | -117.20347 | 22 ft | 1 kts | 231° |
| 2026-04-24 01:23 | 32.73463 | -117.20333 | 22 ft | 2 kts | 230° |
| 2026-04-24 01:23 | 32.73473 | -117.20319 | 22 ft | 2 kts | 230° |
| 2026-04-24 01:23 | 32.73482 | -117.20306 | 22 ft | 1 kts | 230° |
| 2026-04-24 01:23 | 32.73488 | -117.20297 | 22 ft | 2 kts | 224° |
| 2026-04-24 01:24 | 32.73500 | -117.20287 | 22 ft | 2 kts | 207° |
| 2026-04-24 01:24 | 32.73514 | -117.20281 | 22 ft | 2 kts | 192° |
| 2026-04-24 01:24 | 32.73529 | -117.20279 | 22 ft | 2 kts | 178° |
| 2026-04-24 01:24 | 32.73544 | -117.20282 | 22 ft | 2 kts | 163° |
| 2026-04-24 01:25 | 32.73557 | -117.20288 | 22 ft | 2 kts | 149° |
| 2026-04-24 01:25 | 32.73569 | -117.20299 | 22 ft | 2 kts | 135° |
| 2026-04-24 01:25 | 32.73578 | -117.20312 | 22 ft | 2 kts | 121° |
| 2026-04-24 01:25 | 32.73584 | -117.20326 | 22 ft | 0 kts | 108° |
| 2026-04-24 01:26 | 32.73585 | -117.20334 | 22 ft | 0 kts | 105° |
| 2026-04-24 01:28 | 32.73580 | -117.20313 | 22 ft | 7 kts | 106° |
| 2026-04-24 01:28 | 32.73555 | -117.20212 | 22 ft | 14 kts | 106° |
| 2026-04-24 01:28 | 32.73528 | -117.20101 | 22 ft | 13 kts | 107° |
| 2026-04-24 01:28 | 32.73499 | -117.19980 | 22 ft | 17 kts | 105° |
| 2026-04-24 01:29 | 32.73466 | -117.19845 | 22 ft | 16 kts | 106° |
| 2026-04-24 01:29 | 32.73439 | -117.19727 | 23 ft | 13 kts | 107° |
| 2026-04-24 01:29 | 32.73413 | -117.19622 | 23 ft | 13 kts | 106° |
| 2026-04-24 01:29 | 32.73381 | -117.19495 | 25 ft | 18 kts | 106° |
| 2026-04-24 01:30 | 32.73347 | -117.19349 | 25 ft | 17 kts | 105° |
| 2026-04-24 01:30 | 32.73314 | -117.19213 | 25 ft | 16 kts | 107° |
| 2026-04-24 01:30 | 32.73283 | -117.19086 | 24 ft | 15 kts | 106° |
| 2026-04-24 01:30 | 32.73254 | -117.18964 | 23 ft | 14 kts | 104° |
| 2026-04-24 01:31 | 32.73226 | -117.18851 | 23 ft | 14 kts | 107° |
| 2026-04-24 01:31 | 32.73192 | -117.18716 | 22 ft | 17 kts | 107° |
| 2026-04-24 01:31 | 32.73161 | -117.18583 | 22 ft | 16 kts | 106° |
| 2026-04-24 01:31 | 32.73130 | -117.18459 | 22 ft | 14 kts | 105° |
| 2026-04-24 01:32 | 32.73101 | -117.18338 | 22 ft | 17 kts | 106° |
| 2026-04-24 01:32 | 32.73063 | -117.18183 | 22 ft | 19 kts | 107° |
| 2026-04-24 01:32 | 32.73025 | -117.18030 | 22 ft | 18 kts | 107° |
| 2026-04-24 01:32 | 32.72992 | -117.17893 | 24 ft | 15 kts | 105° |
| 2026-04-24 01:33 | 32.72965 | -117.17781 | 26 ft | 10 kts | 106° |
| 2026-04-24 01:33 | 32.72953 | -117.17729 | 26 ft | 4 kts | 101° |
| 2026-04-24 01:33 | 32.72951 | -117.17705 | 27 ft | 1 kts | 90° |
| 2026-04-24 01:33 | 32.72951 | -117.17689 | 27 ft | 5 kts | 83° |
| 2026-04-24 01:34 | 32.72974 | -117.17617 | 28 ft | 8 kts | 46° |
| 2026-04-24 01:34 | 32.73021 | -117.17613 | 29 ft | 6 kts | 320° |
| 2026-04-24 01:34 | 32.73052 | -117.17718 | 28 ft | 37 kts | 285° |
| 2026-04-24 01:34 | 32.73198 | -117.18323 | 23 ft | 111 kts | 286° |
| 2026-04-24 01:35 | 32.73468 | -117.19440 | 75 ft | 165 kts | 286° |
| 2026-04-24 01:35 | 32.73792 | -117.20731 | 833 ft | 164 kts | 287° |
| 2026-04-24 01:35 | 32.74336 | -117.21960 | 1480 ft | 176 kts | 306° |
| 2026-04-24 01:35 | 32.75096 | -117.23109 | 2047 ft | 183 kts | 306° |
| 2026-04-24 01:36 | 32.75855 | -117.24416 | 2395 ft | 202 kts | 303° |
| 2026-04-24 01:36 | 32.76649 | -117.25867 | 2852 ft | 218 kts | 303° |
| 2026-04-24 01:36 | 32.77496 | -117.27410 | 3298 ft | 234 kts | 304° |
| 2026-04-24 01:36 | 32.78430 | -117.29095 | 3815 ft | 249 kts | 304° |
| 2026-04-24 01:37 | 32.79409 | -117.30858 | 4359 ft | 263 kts | 304° |
| 2026-04-24 01:37 | 32.80448 | -117.32645 | 5131 ft | 266 kts | 307° |
| 2026-04-24 01:37 | 32.81556 | -117.34379 | 5926 ft | 267 kts | 309° |
| 2026-04-24 01:37 | 32.82697 | -117.36106 | 6735 ft | 268 kts | 308° |
| 2026-04-24 01:38 | 32.83843 | -117.37846 | 7473 ft | 271 kts | 308° |
| 2026-04-24 01:38 | 32.85013 | -117.39644 | 7858 ft | 279 kts | 307° |
| 2026-04-24 01:38 | 32.86193 | -117.41470 | 7949 ft | 276 kts | 307° |
| 2026-04-24 01:38 | 32.87375 | -117.43307 | 8376 ft | 284 kts | 307° |
| 2026-04-24 01:39 | 32.88539 | -117.45115 | 9342 ft | 277 kts | 307° |
| 2026-04-24 01:39 | 32.89726 | -117.46959 | 9986 ft | 282 kts | 307° |
| 2026-04-24 01:39 | 32.90924 | -117.48823 | 10545 ft | 291 kts | 306° |
| 2026-04-24 01:39 | 32.92186 | -117.50786 | 10961 ft | 305 kts | 306° |
| 2026-04-24 01:40 | 32.93485 | -117.52806 | 11350 ft | 318 kts | 306° |
| 2026-04-24 01:40 | 32.94856 | -117.54940 | 11726 ft | 332 kts | 306° |
| 2026-04-24 01:40 | 32.96280 | -117.57156 | 12389 ft | 337 kts | 306° |
| 2026-04-24 01:40 | 32.97692 | -117.59354 | 13078 ft | 339 kts | 306° |
| 2026-04-24 01:41 | 32.99119 | -117.61576 | 13810 ft | 340 kts | 306° |
| 2026-04-24 01:41 | 33.00559 | -117.63821 | 14554 ft | 342 kts | 305° |
| 2026-04-24 01:41 | 33.02002 | -117.66076 | 15238 ft | 346 kts | 305° |
| 2026-04-24 01:41 | 33.03457 | -117.68351 | 15959 ft | 348 kts | 305° |
| 2026-04-24 01:42 | 33.04940 | -117.70657 | 16629 ft | 352 kts | 305° |
| 2026-04-24 01:42 | 33.06487 | -117.72894 | 17295 ft | 356 kts | 309° |
| 2026-04-24 01:42 | 33.08248 | -117.74994 | 17964 ft | 360 kts | 314° |
| 2026-04-24 01:42 | 33.10130 | -117.76962 | 18649 ft | 363 kts | 316° |
| 2026-04-24 01:43 | 33.12083 | -117.78902 | 19200 ft | 368 kts | 316° |
| 2026-04-24 01:43 | 33.14050 | -117.80839 | 19828 ft | 371 kts | 316° |
| 2026-04-24 01:43 | 33.16013 | -117.82787 | 20411 ft | 374 kts | 316° |
| 2026-04-24 01:43 | 33.18018 | -117.84792 | 21016 ft | 375 kts | 316° |
| 2026-04-24 01:44 | 33.19992 | -117.86802 | 21544 ft | 378 kts | 315° |
| 2026-04-24 01:44 | 33.21915 | -117.88936 | 22102 ft | 379 kts | 312° |
| 2026-04-24 01:44 | 33.23798 | -117.91172 | 22612 ft | 382 kts | 311° |
| 2026-04-24 01:44 | 33.25661 | -117.93442 | 23135 ft | 385 kts | 311° |
| 2026-04-24 01:45 | 33.27522 | -117.95718 | 23687 ft | 386 kts | 311° |
| 2026-04-24 01:45 | 33.29400 | -117.98001 | 24190 ft | 389 kts | 311° |
| 2026-04-24 01:45 | 33.31323 | -118.00327 | 24641 ft | 393 kts | 311° |
| 2026-04-24 01:45 | 33.33251 | -118.02647 | 25144 ft | 395 kts | 311° |
| 2026-04-24 01:46 | 33.35195 | -118.04979 | 25629 ft | 397 kts | 311° |
| 2026-04-24 01:46 | 33.37157 | -118.07333 | 26015 ft | 402 kts | 311° |
| 2026-04-24 01:46 | 33.39133 | -118.09701 | 26500 ft | 404 kts | 310° |
| 2026-04-24 01:46 | 33.41106 | -118.12066 | 26969 ft | 406 kts | 311° |
| 2026-04-24 01:47 | 33.43099 | -118.14458 | 27364 ft | 409 kts | 311° |
| 2026-04-24 01:47 | 33.45114 | -118.16873 | 28068 ft | 405 kts | 310° |
| 2026-04-24 01:47 | 33.47071 | -118.19218 | 28718 ft | 401 kts | 310° |
| 2026-04-24 01:47 | 33.49047 | -118.21587 | 29223 ft | 401 kts | 310° |
| 2026-04-24 01:48 | 33.50980 | -118.23908 | 29757 ft | 399 kts | 310° |
| 2026-04-24 01:48 | 33.52922 | -118.26247 | 30303 ft | 398 kts | 310° |
| 2026-04-24 01:48 | 33.54858 | -118.28578 | 30878 ft | 395 kts | 310° |
| 2026-04-24 01:48 | 33.56723 | -118.30827 | 31385 ft | 393 kts | 309° |
| 2026-04-24 01:49 | 33.58663 | -118.33170 | 31865 ft | 392 kts | 309° |
| 2026-04-24 01:49 | 33.60569 | -118.35471 | 31967 ft | 396 kts | 309° |
| 2026-04-24 01:49 | 33.62497 | -118.37801 | 31969 ft | 392 kts | 309° |
| 2026-04-24 01:50 | 33.66332 | -118.42429 | 31967 ft | 389 kts | 309° |
| 2026-04-24 01:50 | 33.70127 | -118.47025 | 31967 ft | 390 kts | 309° |
| 2026-04-24 01:51 | 33.73946 | -118.51653 | 31972 ft | 391 kts | 309° |
| 2026-04-24 01:51 | 33.77785 | -118.56310 | 31964 ft | 392 kts | 309° |
| 2026-04-24 01:52 | 33.81605 | -118.60953 | 31970 ft | 392 kts | 310° |
| 2026-04-24 01:52 | 33.85375 | -118.65537 | 31968 ft | 391 kts | 309° |
| 2026-04-24 01:53 | 33.89196 | -118.70196 | 31962 ft | 390 kts | 309° |
| 2026-04-24 01:53 | 33.93018 | -118.74860 | 31961 ft | 390 kts | 309° |
| 2026-04-24 01:54 | 33.96813 | -118.79497 | 31958 ft | 391 kts | 309° |
| 2026-04-24 01:54 | 34.00613 | -118.84146 | 31958 ft | 390 kts | 309° |
| 2026-04-24 01:55 | 34.04408 | -118.88792 | 31965 ft | 390 kts | 309° |
| 2026-04-24 01:55 | 34.08232 | -118.93484 | 31975 ft | 392 kts | 309° |
| 2026-04-24 01:56 | 34.12022 | -118.98146 | 31976 ft | 390 kts | 308° |
| 2026-04-24 01:56 | 34.14879 | -119.02292 | 31980 ft | 386 kts | 301° |
| 2026-04-24 01:57 | 34.18292 | -119.08554 | 31978 ft | 383 kts | 298° |
| 2026-04-24 01:57 | 34.21101 | -119.14040 | 31979 ft | 382 kts | 298° |
| 2026-04-24 01:58 | 34.23941 | -119.19597 | 31981 ft | 395 kts | 298° |
| 2026-04-24 01:58 | 34.26877 | -119.25331 | 31980 ft | 410 kts | 298° |
| 2026-04-24 01:59 | 34.29910 | -119.31248 | 31986 ft | 412 kts | 298° |
| 2026-04-24 01:59 | 34.32924 | -119.37126 | 31988 ft | 413 kts | 298° |
| 2026-04-24 02:00 | 34.35937 | -119.43009 | 31991 ft | 414 kts | 298° |
| 2026-04-24 02:00 | 34.38958 | -119.48910 | 31991 ft | 413 kts | 298° |
| 2026-04-24 02:01 | 34.42236 | -119.54645 | 31998 ft | 417 kts | 305° |
| 2026-04-24 02:01 | 34.46217 | -119.59812 | 32007 ft | 421 kts | 310° |
| 2026-04-24 02:02 | 34.50388 | -119.64794 | 32015 ft | 422 kts | 310° |
| 2026-04-24 02:02 | 34.54534 | -119.69772 | 32014 ft | 421 kts | 310° |
| 2026-04-24 02:03 | 34.60709 | -119.77311 | 32014 ft | 420 kts | 309° |
| 2026-04-24 02:03 | 34.64813 | -119.82368 | 32025 ft | 421 kts | 309° |
| 2026-04-24 02:04 | 34.68913 | -119.87439 | 32017 ft | 420 kts | 309° |
| 2026-04-24 02:04 | 34.72945 | -119.92439 | 32038 ft | 421 kts | 309° |
| 2026-04-24 02:05 | 34.77024 | -119.97514 | 32033 ft | 422 kts | 309° |
| 2026-04-24 02:05 | 34.81077 | -120.02557 | 32036 ft | 420 kts | 309° |
| 2026-04-24 02:06 | 34.85169 | -120.07652 | 32038 ft | 421 kts | 309° |
| 2026-04-24 02:06 | 34.89244 | -120.12737 | 32035 ft | 421 kts | 309° |
| 2026-04-24 02:07 | 34.93315 | -120.17820 | 32020 ft | 420 kts | 309° |
| 2026-04-24 02:07 | 34.97414 | -120.22946 | 32013 ft | 421 kts | 309° |
| 2026-04-24 02:08 | 35.01498 | -120.28068 | 32006 ft | 422 kts | 309° |
| 2026-04-24 02:08 | 35.05582 | -120.33195 | 32004 ft | 422 kts | 309° |
| 2026-04-24 02:09 | 35.09702 | -120.38219 | 32002 ft | 424 kts | 313° |
| 2026-04-24 02:09 | 35.14216 | -120.42890 | 32002 ft | 427 kts | 316° |
| 2026-04-24 02:10 | 35.18867 | -120.47430 | 32003 ft | 426 kts | 316° |
| 2026-04-24 02:10 | 35.23496 | -120.51965 | 32005 ft | 426 kts | 316° |
| 2026-04-24 02:11 | 35.28064 | -120.56492 | 32008 ft | 427 kts | 316° |
| 2026-04-24 02:11 | 35.32678 | -120.61095 | 32010 ft | 426 kts | 316° |
| 2026-04-24 02:12 | 35.37255 | -120.65682 | 32013 ft | 426 kts | 315° |
| 2026-04-24 02:12 | 35.41848 | -120.70300 | 32013 ft | 425 kts | 315° |
| 2026-04-24 02:13 | 35.46424 | -120.74908 | 32013 ft | 425 kts | 315° |
| 2026-04-24 02:13 | 35.50952 | -120.79475 | 32013 ft | 424 kts | 315° |
| 2026-04-24 02:14 | 35.55511 | -120.84080 | 32011 ft | 425 kts | 315° |
| 2026-04-24 02:14 | 35.60110 | -120.88726 | 32007 ft | 426 kts | 315° |
| 2026-04-24 02:15 | 35.64650 | -120.93319 | 32009 ft | 425 kts | 315° |
| 2026-04-24 02:15 | 35.69188 | -120.97924 | 32004 ft | 425 kts | 315° |
| 2026-04-24 02:16 | 35.73759 | -121.02571 | 32011 ft | 425 kts | 315° |
| 2026-04-24 02:16 | 35.78292 | -121.07186 | 32009 ft | 425 kts | 315° |
| 2026-04-24 02:17 | 35.82847 | -121.11827 | 32014 ft | 425 kts | 315° |
| 2026-04-24 02:17 | 35.87425 | -121.16500 | 32018 ft | 425 kts | 315° |
| 2026-04-24 02:18 | 35.91966 | -121.21142 | 32016 ft | 425 kts | 315° |
| 2026-04-24 02:18 | 35.96517 | -121.25796 | 32016 ft | 425 kts | 315° |
| 2026-04-24 02:19 | 36.01072 | -121.30468 | 32021 ft | 425 kts | 315° |
| 2026-04-24 02:19 | 36.05624 | -121.35130 | 32026 ft | 425 kts | 316° |
| 2026-04-24 02:20 | 36.10395 | -121.39408 | 31261 ft | 427 kts | 322° |
| 2026-04-24 02:20 | 36.12831 | -121.41338 | 30257 ft | 434 kts | 323° |
| 2026-04-24 02:20 | 36.15403 | -121.43310 | 29562 ft | 432 kts | 324° |
| 2026-04-24 02:21 | 36.17930 | -121.45225 | 29260 ft | 421 kts | 324° |
| 2026-04-24 02:21 | 36.20389 | -121.47088 | 28995 ft | 410 kts | 324° |
| 2026-04-24 02:21 | 36.22756 | -121.48892 | 28731 ft | 400 kts | 323° |
| 2026-04-24 02:21 | 36.25089 | -121.50684 | 28467 ft | 390 kts | 323° |
| 2026-04-24 02:22 | 36.27356 | -121.52436 | 28209 ft | 381 kts | 323° |
| 2026-04-24 02:22 | 36.29555 | -121.54144 | 27899 ft | 374 kts | 323° |
| 2026-04-24 02:22 | 36.31752 | -121.55862 | 27460 ft | 370 kts | 323° |
| 2026-04-24 02:22 | 36.33914 | -121.57558 | 26995 ft | 366 kts | 323° |
| 2026-04-24 02:23 | 36.36049 | -121.59235 | 26533 ft | 363 kts | 324° |
| 2026-04-24 02:23 | 36.38172 | -121.60902 | 26074 ft | 360 kts | 323° |
| 2026-04-24 02:23 | 36.40293 | -121.62573 | 25618 ft | 357 kts | 324° |
| 2026-04-24 02:23 | 36.42372 | -121.64212 | 25162 ft | 353 kts | 324° |
| 2026-04-24 02:24 | 36.44443 | -121.65846 | 24720 ft | 350 kts | 323° |
| 2026-04-24 02:24 | 36.46494 | -121.67463 | 24276 ft | 347 kts | 323° |
| 2026-04-24 02:24 | 36.48508 | -121.69051 | 23832 ft | 345 kts | 324° |
| 2026-04-24 02:24 | 36.50538 | -121.70652 | 23393 ft | 342 kts | 324° |
| 2026-04-24 02:25 | 36.52539 | -121.72234 | 22966 ft | 339 kts | 324° |
| 2026-04-24 02:25 | 36.54526 | -121.73805 | 22532 ft | 337 kts | 324° |
| 2026-04-24 02:25 | 36.56478 | -121.75351 | 22106 ft | 335 kts | 324° |
| 2026-04-24 02:25 | 36.58454 | -121.76918 | 21670 ft | 333 kts | 324° |
| 2026-04-24 02:26 | 36.60392 | -121.78454 | 21244 ft | 332 kts | 325° |
| 2026-04-24 02:26 | 36.62345 | -121.80000 | 20814 ft | 330 kts | 325° |
| 2026-04-24 02:26 | 36.64252 | -121.81514 | 20392 ft | 328 kts | 325° |
| 2026-04-24 02:26 | 36.66161 | -121.83030 | 19968 ft | 326 kts | 326° |
| 2026-04-24 02:27 | 36.68064 | -121.84541 | 19548 ft | 324 kts | 326° |
| 2026-04-24 02:27 | 36.69981 | -121.86063 | 19121 ft | 323 kts | 326° |
| 2026-04-24 02:27 | 36.71863 | -121.87550 | 18705 ft | 321 kts | 327° |
| 2026-04-24 02:27 | 36.73785 | -121.88930 | 18280 ft | 320 kts | 333° |
| 2026-04-24 02:28 | 36.75846 | -121.89955 | 17851 ft | 319 kts | 342° |
| 2026-04-24 02:28 | 36.77987 | -121.90656 | 17386 ft | 319 kts | 347° |
| 2026-04-24 02:28 | 36.80145 | -121.91223 | 16958 ft | 318 kts | 348° |
| 2026-04-24 02:28 | 36.82319 | -121.91769 | 16547 ft | 316 kts | 348° |
| 2026-04-24 02:29 | 36.84446 | -121.92316 | 16148 ft | 315 kts | 348° |
| 2026-04-24 02:29 | 36.86596 | -121.92892 | 15724 ft | 313 kts | 348° |
| 2026-04-24 02:29 | 36.88675 | -121.93462 | 15315 ft | 311 kts | 347° |
| 2026-04-24 02:29 | 36.90761 | -121.94042 | 14928 ft | 309 kts | 347° |
| 2026-04-24 02:30 | 36.92857 | -121.94628 | 14509 ft | 308 kts | 348° |
| 2026-04-24 02:30 | 36.94967 | -121.95221 | 14095 ft | 306 kts | 347° |
| 2026-04-24 02:30 | 36.97006 | -121.95895 | 13699 ft | 305 kts | 344° |
| 2026-04-24 02:30 | 36.99016 | -121.96681 | 13305 ft | 303 kts | 342° |
| 2026-04-24 02:31 | 37.01014 | -121.97501 | 12915 ft | 302 kts | 342° |
| 2026-04-24 02:31 | 37.03017 | -121.98318 | 12503 ft | 300 kts | 343° |
| 2026-04-24 02:31 | 37.04971 | -121.99099 | 12106 ft | 298 kts | 343° |
| 2026-04-24 02:31 | 37.06959 | -121.99882 | 11678 ft | 296 kts | 343° |
| 2026-04-24 02:32 | 37.08905 | -122.00644 | 11321 ft | 292 kts | 343° |
| 2026-04-24 02:32 | 37.10822 | -122.01392 | 10940 ft | 290 kts | 343° |
| 2026-04-24 02:32 | 37.12744 | -122.02142 | 10549 ft | 287 kts | 343° |
| 2026-04-24 02:32 | 37.14645 | -122.02886 | 10188 ft | 285 kts | 343° |
| 2026-04-24 02:33 | 37.16526 | -122.03622 | 9887 ft | 279 kts | 343° |
| 2026-04-24 02:33 | 37.18334 | -122.04332 | 9740 ft | 269 kts | 344° |
| 2026-04-24 02:33 | 37.20114 | -122.05030 | 9362 ft | 269 kts | 344° |
| 2026-04-24 02:33 | 37.21897 | -122.05727 | 9015 ft | 268 kts | 343° |
| 2026-04-24 02:34 | 37.23657 | -122.06416 | 8678 ft | 266 kts | 343° |
| 2026-04-24 02:34 | 37.25416 | -122.07107 | 8340 ft | 265 kts | 343° |
| 2026-04-24 02:34 | 37.27164 | -122.07793 | 8019 ft | 262 kts | 343° |
| 2026-04-24 02:34 | 37.28881 | -122.08469 | 7766 ft | 258 kts | 343° |
| 2026-04-24 02:35 | 37.30614 | -122.09152 | 7298 ft | 262 kts | 343° |
| 2026-04-24 02:35 | 37.32351 | -122.09836 | 6933 ft | 262 kts | 343° |
| 2026-04-24 02:35 | 37.34072 | -122.10514 | 6605 ft | 260 kts | 343° |
| 2026-04-24 02:35 | 37.35794 | -122.11194 | 6274 ft | 258 kts | 343° |
| 2026-04-24 02:36 | 37.37510 | -122.11867 | 5985 ft | 255 kts | 343° |
| 2026-04-24 02:36 | 37.39214 | -122.12486 | 5697 ft | 259 kts | 345° |
| 2026-04-24 02:36 | 37.40936 | -122.13071 | 5369 ft | 256 kts | 346° |
| 2026-04-24 02:36 | 37.42649 | -122.13645 | 5050 ft | 250 kts | 345° |
| 2026-04-24 02:37 | 37.44274 | -122.14195 | 4773 ft | 238 kts | 345° |
| 2026-04-24 02:37 | 37.45845 | -122.14726 | 4508 ft | 226 kts | 345° |
| 2026-04-24 02:37 | 37.47329 | -122.15216 | 4257 ft | 216 kts | 345° |
| 2026-04-24 02:37 | 37.48757 | -122.15685 | 4001 ft | 206 kts | 345° |
| 2026-04-24 02:38 | 37.50116 | -122.16132 | 3788 ft | 198 kts | 345° |
| 2026-04-24 02:38 | 37.51427 | -122.16564 | 3555 ft | 192 kts | 345° |
| 2026-04-24 02:38 | 37.52689 | -122.16991 | 3332 ft | 187 kts | 340° |
| 2026-04-24 02:38 | 37.53772 | -122.17821 | 3107 ft | 179 kts | 308° |
| 2026-04-24 02:39 | 37.54382 | -122.19136 | 2876 ft | 175 kts | 295° |
| 2026-04-24 02:39 | 37.54917 | -122.20517 | 2676 ft | 171 kts | 298° |
| 2026-04-24 02:39 | 37.55455 | -122.21794 | 2497 ft | 159 kts | 299° |
| 2026-04-24 02:39 | 37.55951 | -122.22960 | 2297 ft | 144 kts | 299° |
| 2026-04-24 02:40 | 37.56412 | -122.24046 | 2118 ft | 143 kts | 299° |
| 2026-04-24 02:40 | 37.56882 | -122.25153 | 1898 ft | 141 kts | 299° |
| 2026-04-24 02:40 | 37.57340 | -122.26236 | 1714 ft | 141 kts | 298° |
| 2026-04-24 02:40 | 37.57794 | -122.27314 | 1527 ft | 140 kts | 298° |
| 2026-04-24 02:41 | 37.58255 | -122.28402 | 1335 ft | 139 kts | 298° |
| 2026-04-24 02:41 | 37.58704 | -122.29466 | 1152 ft | 138 kts | 298° |
| 2026-04-24 02:41 | 37.59159 | -122.30542 | 966 ft | 138 kts | 298° |
| 2026-04-24 02:41 | 37.59606 | -122.31599 | 780 ft | 137 kts | 297° |
| 2026-04-24 02:42 | 37.60054 | -122.32657 | 594 ft | 138 kts | 297° |
| 2026-04-24 02:42 | 37.60496 | -122.33687 | 443 ft | 136 kts | 297° |
| 2026-04-24 02:42 | 37.60923 | -122.34695 | 243 ft | 138 kts | 297° |
| 2026-04-24 02:43 | 37.61947 | -122.37134 | 15 ft | 68 kts | 300° |
| 2026-04-24 02:43 | 37.62130 | -122.37585 | 24 ft | 52 kts | 297° |
| 2026-04-24 02:43 | 37.62270 | -122.37942 | 29 ft | 42 kts | 304° |
| 2026-04-24 02:44 | 37.62399 | -122.38246 | 28 ft | 38 kts | 299° |
| 2026-04-24 02:44 | 37.62497 | -122.38522 | 26 ft | 29 kts | 277° |
| 2026-04-24 02:44 | 37.62501 | -122.38703 | 26 ft | 12 kts | 269° |
| 2026-04-24 02:44 | 37.62500 | -122.38733 | 25 ft | 0 kts | 269° |
| 2026-04-24 02:46 | 37.62500 | -122.38741 | 25 ft | 4 kts | 270° |
| 2026-04-24 02:46 | 37.62475 | -122.38856 | 26 ft | 22 kts | 228° |
| 2026-04-24 02:46 | 37.62357 | -122.38940 | 28 ft | 16 kts | 208° |
| 2026-04-24 02:46 | 37.62265 | -122.39004 | 30 ft | 12 kts | 221° |
| 2026-04-24 02:47 | 37.62231 | -122.39063 | 31 ft | 5 kts | 234° |
| 2026-04-24 02:47 | 37.62206 | -122.39073 | 31 ft | 3 kts | 171° |
| 2026-04-24 02:47 | 37.62185 | -122.39062 | 32 ft | 5 kts | 158° |
| 2026-04-24 02:47 | 37.62159 | -122.39052 | 32 ft | 4 kts | 163° |
| 2026-04-24 02:48 | 37.62146 | -122.39047 | 32 ft | 0 kts | 164° |